Time;durP1;ratioP1;P1;durP2;ratioP2;P2;SDS_P1;SDS_P2;PMS_P1;PMS_P2;Temp;Humidity;BMP_temperature;BMP_pressure;BME280_temperature;BME280_humidity;BME280_pressure;Samples;Min_cycle;Max_cycle;Signal;HPM_P1;HPM_P2
2022/09/19 00:02:07;;;;;;;;;1.00;1.00;;;;;;;;5102087;27;61710;-76
2022/09/19 00:04:32;;;;;;;;;1.00;1.00;;;;;;;;5104285;27;61694;-75
2022/09/19 00:06:58;;;;;;;;;1.00;1.00;;;;;;;;5101720;27;64085;-75
2022/09/19 00:09:25;;;;;;;;;2.00;2.00;;;;;;;;5103672;27;61777;-75
2022/09/19 00:11:51;;;;;;;;;2.00;2.00;;;;;;;;5103889;27;61947;-75
2022/09/19 00:14:18;;;;;;;;;3.75;1.75;;;;;;;;5103950;27;62414;-75
2022/09/19 00:16:45;;;;;;;;;1.00;1.00;;;;;;;;5102718;27;61999;-75
2022/09/19 00:19:12;;;;;;;;;2.00;1.25;;;;;;;;5103488;27;62565;-75
2022/09/19 00:21:39;;;;;;;;;3.25;1.50;;;;;;;;5103404;27;61745;-75
2022/09/19 00:26:49;;;;;;;;;4.75;2.00;;;;;;;;5102978;27;62395;-75
2022/09/19 00:29:16;;;;;;;;;3.00;1.75;;;;;;;;5103368;27;61885;-75
2022/09/19 00:31:43;;;;;;;;;1.00;1.00;;;;;;;;5101760;27;62068;-75
2022/09/19 00:34:09;;;;;;;;;1.00;1.00;;;;;;;;5103819;27;61674;-75
2022/09/19 00:36:35;;;;;;;;;2.00;1.00;;;;;;;;5102688;27;62082;-75
2022/09/19 00:39:00;;;;;;;;;2.00;1.00;;;;;;;;5103243;27;62629;-75
2022/09/19 00:41:26;;;;;;;;;1.00;1.00;;;;;;;;5101796;27;61813;-75
2022/09/19 00:44:05;;;;;;;;;3.75;2.00;;;;;;;;5103597;27;61746;-75
2022/09/19 00:46:32;;;;;;;;;2.00;2.00;;;;;;;;5102500;27;62046;-75
2022/09/19 00:49:01;;;;;;;;;1.00;1.00;;;;;;;;5101636;27;61925;-75
2022/09/19 00:51:31;;;;;;;;;3.50;2.50;;;;;;;;5103071;27;61686;-75
2022/09/19 00:53:58;;;;;;;;;1.00;1.00;;;;;;;;5101488;27;61886;-75
2022/09/19 00:56:23;;;;;;;;;2.50;2.50;;;;;;;;5102227;27;61931;-75
2022/09/19 00:58:50;;;;;;;;;1.00;1.00;;;;;;;;5103122;27;61800;-75
2022/09/19 01:01:15;;;;;;;;;2.00;1.00;;;;;;;;5103400;27;61700;-75
2022/09/19 01:03:41;;;;;;;;;2.00;2.00;;;;;;;;5104723;27;62067;-75
2022/09/19 01:06:17;;;;;;;;;2.00;2.00;;;;;;;;5104638;27;63658;-75
2022/09/19 01:08:43;;;;;;;;;0.75;0.75;;;;;;;;5106458;27;61769;-75
2022/09/19 01:11:21;;;;;;;;;1.00;1.00;;;;;;;;5105521;27;62051;-75
2022/09/19 01:14:09;;;;;;;;;2.00;1.50;;;;;;;;5107177;27;61719;-75
2022/09/19 01:16:43;;;;;;;;;2.00;2.00;;;;;;;;5096009;27;63927;-75
2022/09/19 01:19:27;;;;;;;;;1.75;1.75;;;;;;;;5106722;27;61777;-74
2022/09/19 01:22:05;;;;;;;;;3.00;2.00;;;;;;;;5106418;27;61793;-75
2022/09/19 01:24:36;;;;;;;;;2.75;2.00;;;;;;;;5106371;27;61753;-75
2022/09/19 01:27:18;;;;;;;;;2.75;2.75;;;;;;;;5105730;27;61811;-75
2022/09/19 01:29:49;;;;;;;;;1.25;1.25;;;;;;;;5106157;27;61928;-75
2022/09/19 01:32:18;;;;;;;;;5.75;2.00;;;;;;;;5106075;27;62062;-75
2022/09/19 01:34:50;;;;;;;;;3.50;2.00;;;;;;;;5106533;27;62226;-75
2022/09/19 01:37:17;;;;;;;;;2.00;2.00;;;;;;;;5105498;27;62986;-75
2022/09/19 01:39:46;;;;;;;;;2.50;2.50;;;;;;;;5106131;27;61749;-75
2022/09/19 01:42:12;;;;;;;;;5.00;2.00;;;;;;;;5106287;27;62634;-75
2022/09/19 01:44:37;;;;;;;;;6.25;3.00;;;;;;;;5104851;27;62404;-75
2022/09/19 01:47:21;;;;;;;;;2.00;2.00;;;;;;;;5105271;27;62018;-75
2022/09/19 01:49:51;;;;;;;;;3.00;1.50;;;;;;;;5106048;27;61654;-75
2022/09/19 01:52:35;;;;;;;;;2.00;2.00;;;;;;;;5105975;27;62032;-75
2022/09/19 01:55:04;;;;;;;;;3.00;2.00;;;;;;;;5106024;27;61615;-75
2022/09/19 01:57:44;;;;;;;;;2.50;2.00;;;;;;;;5103744;27;63277;-75
2022/09/19 02:00:10;;;;;;;;;2.00;2.00;;;;;;;;5104537;27;61821;-75
2022/09/19 02:02:42;;;;;;;;;1.00;1.00;;;;;;;;5105660;27;61813;-75
2022/09/19 02:05:34;;;;;;;;;2.00;1.00;;;;;;;;5106206;27;61796;-75
2022/09/19 02:08:07;;;;;;;;;2.25;2.25;;;;;;;;5104843;27;62193;-75
2022/09/19 02:10:56;;;;;;;;;1.00;1.00;;;;;;;;5104551;27;62199;-75
2022/09/19 02:13:24;;;;;;;;;5.50;3.00;;;;;;;;5102065;27;61803;-75
2022/09/19 02:15:54;;;;;;;;;1.25;1.25;;;;;;;;5104928;27;61867;-75
2022/09/19 02:18:38;;;;;;;;;1.50;1.50;;;;;;;;5104572;27;62659;-75
2022/09/19 02:21:05;;;;;;;;;4.00;2.00;;;;;;;;5105585;27;61924;-75
2022/09/19 02:23:33;;;;;;;;;3.00;1.00;;;;;;;;5105188;27;61978;-75
2022/09/19 02:26:02;;;;;;;;;2.25;2.25;;;;;;;;5104394;27;61782;-75
2022/09/19 02:28:31;;;;;;;;;1.25;1.00;;;;;;;;5104962;27;61873;-75
2022/09/19 02:30:56;;;;;;;;;2.25;2.25;;;;;;;;5103611;27;61764;-75
2022/09/19 02:33:22;;;;;;;;;2.00;2.00;;;;;;;;5105069;27;62046;-75
2022/09/19 02:36:14;;;;;;;;;1.00;1.00;;;;;;;;5105387;27;61847;-75
2022/09/19 02:38:51;;;;;;;;;2.00;2.00;;;;;;;;5099768;27;62063;-75
2022/09/19 02:41:29;;;;;;;;;1.00;1.00;;;;;;;;5105304;27;61781;-75
2022/09/19 02:44:00;;;;;;;;;1.75;1.75;;;;;;;;5103943;27;61887;-75
2022/09/19 02:46:38;;;;;;;;;3.00;2.00;;;;;;;;5105303;27;61843;-75
2022/09/19 02:49:12;;;;;;;;;2.75;1.00;;;;;;;;5104089;27;62386;-75
2022/09/19 02:51:50;;;;;;;;;3.00;3.00;;;;;;;;5103299;27;61933;-75
2022/09/19 02:54:28;;;;;;;;;2.00;2.00;;;;;;;;5103269;27;62018;-75
2022/09/19 02:56:55;;;;;;;;;1.75;1.75;;;;;;;;5105003;27;61846;-75
2022/09/19 02:59:23;;;;;;;;;4.25;3.00;;;;;;;;5104695;27;62141;-75
2022/09/19 03:01:52;;;;;;;;;1.00;1.00;;;;;;;;5104571;27;61744;-75
2022/09/19 03:04:21;;;;;;;;;2.00;2.00;;;;;;;;5104718;27;61970;-75
2022/09/19 03:06:55;;;;;;;;;2.25;2.25;;;;;;;;5104901;27;61648;-75
2022/09/19 03:09:23;;;;;;;;;3.00;2.00;;;;;;;;5104377;27;63133;-75
2022/09/19 03:11:53;;;;;;;;;4.00;3.25;;;;;;;;5103322;27;62021;-75
2022/09/19 03:14:18;;;;;;;;;2.00;2.00;;;;;;;;5104852;27;61823;-75
2022/09/19 03:16:47;;;;;;;;;3.00;2.00;;;;;;;;5104843;27;61687;-75
2022/09/19 03:19:12;;;;;;;;;5.75;3.00;;;;;;;;5103328;27;61909;-75
2022/09/19 03:21:38;;;;;;;;;2.50;1.50;;;;;;;;5104348;27;61687;-75
2022/09/19 03:24:04;;;;;;;;;2.00;1.00;;;;;;;;5104393;27;61760;-75
2022/09/19 03:26:32;;;;;;;;;2.75;2.75;;;;;;;;5104582;27;61981;-74
2022/09/19 03:28:58;;;;;;;;;2.00;2.00;;;;;;;;5103911;27;61817;-75
2022/09/19 03:31:24;;;;;;;;;2.75;2.00;;;;;;;;5104451;27;61791;-75
2022/09/19 03:33:51;;;;;;;;;4.00;2.00;;;;;;;;5104071;27;61778;-75
2022/09/19 03:36:16;;;;;;;;;4.00;4.00;;;;;;;;5104780;27;61819;-75
2022/09/19 03:38:45;;;;;;;;;3.00;3.00;;;;;;;;5103817;27;62936;-75
2022/09/19 03:41:14;;;;;;;;;4.00;2.75;;;;;;;;5104230;27;61736;-75
2022/09/19 03:43:42;;;;;;;;;2.75;2.75;;;;;;;;5103008;27;61915;-75
2022/09/19 03:46:10;;;;;;;;;2.25;2.25;;;;;;;;5102864;27;62098;-75
2022/09/19 03:48:36;;;;;;;;;5.75;3.00;;;;;;;;5101752;27;63960;-75
2022/09/19 03:51:01;;;;;;;;;4.00;3.00;;;;;;;;5104087;27;61862;-75
2022/09/19 03:53:27;;;;;;;;;5.00;3.00;;;;;;;;5103811;27;61604;-75
2022/09/19 03:55:54;;;;;;;;;3.00;2.50;;;;;;;;5104524;27;61796;-75
2022/09/19 03:58:19;;;;;;;;;2.50;2.50;;;;;;;;5101947;27;63922;-75
2022/09/19 04:00:45;;;;;;;;;4.25;2.00;;;;;;;;5102598;27;61819;-75
2022/09/19 04:03:10;;;;;;;;;4.00;3.00;;;;;;;;5103446;27;62046;-75
2022/09/19 04:05:35;;;;;;;;;4.00;3.00;;;;;;;;5104285;27;62111;-75
2022/09/19 04:08:01;;;;;;;;;3.75;2.75;;;;;;;;5103351;27;61825;-75
2022/09/19 04:10:26;;;;;;;;;2.50;2.50;;;;;;;;5102306;27;62052;-75
2022/09/19 04:12:52;;;;;;;;;7.00;6.00;;;;;;;;5103869;27;62109;-75
2022/09/19 04:15:17;;;;;;;;;7.50;3.00;;;;;;;;5103869;27;61754;-75
2022/09/19 04:17:42;;;;;;;;;3.75;3.75;;;;;;;;5102360;27;61931;-75
2022/09/19 04:20:09;;;;;;;;;4.50;3.00;;;;;;;;5102079;27;62018;-75
2022/09/19 04:22:37;;;;;;;;;4.00;3.00;;;;;;;;5103755;27;61944;-75
2022/09/19 04:25:02;;;;;;;;;4.25;3.50;;;;;;;;5102468;27;61873;-75
2022/09/19 04:27:27;;;;;;;;;6.25;3.00;;;;;;;;5102675;27;63193;-75
2022/09/19 04:29:53;;;;;;;;;5.50;3.00;;;;;;;;5103620;27;61860;-75
2022/09/19 04:32:18;;;;;;;;;4.25;3.00;;;;;;;;5101535;27;61844;-75
2022/09/19 04:34:43;;;;;;;;;3.00;3.00;;;;;;;;5103665;27;61824;-75
2022/09/19 04:37:09;;;;;;;;;7.00;4.50;;;;;;;;5101327;27;64533;-75
2022/09/19 04:39:34;;;;;;;;;7.50;4.00;;;;;;;;5102973;27;61974;-75
2022/09/19 04:42:01;;;;;;;;;4.50;3.00;;;;;;;;5102934;27;61883;-75
2022/09/19 04:44:29;;;;;;;;;3.50;2.75;;;;;;;;5102899;27;61727;-75
2022/09/19 04:46:55;;;;;;;;;2.00;2.00;;;;;;;;5101384;27;61750;-75
2022/09/19 04:49:20;;;;;;;;;5.25;3.75;;;;;;;;5101446;27;61787;-75
2022/09/19 04:51:45;;;;;;;;;7.50;2.75;;;;;;;;5101869;27;61784;-75
2022/09/19 04:54:11;;;;;;;;;7.25;4.00;;;;;;;;5102996;27;61962;-75
2022/09/19 04:56:37;;;;;;;;;7.00;3.00;;;;;;;;5102582;27;62073;-75
2022/09/19 04:59:03;;;;;;;;;6.75;4.50;;;;;;;;5102125;27;62295;-75
2022/09/19 05:01:30;;;;;;;;;8.50;5.75;;;;;;;;5102986;27;61775;-75
2022/09/19 05:03:56;;;;;;;;;2.75;2.75;;;;;;;;5102861;27;62015;-75
2022/09/19 05:06:21;;;;;;;;;5.50;3.00;;;;;;;;5101366;27;63510;-75
2022/09/19 05:08:46;;;;;;;;;5.50;3.75;;;;;;;;5102923;27;61816;-75
2022/09/19 05:11:12;;;;;;;;;2.50;2.50;;;;;;;;5103101;27;62059;-73
2022/09/19 05:13:38;;;;;;;;;5.00;4.00;;;;;;;;5103063;27;61698;-77
2022/09/19 05:16:04;;;;;;;;;5.00;3.00;;;;;;;;5101834;27;62013;-75
2022/09/19 05:18:33;;;;;;;;;4.50;3.00;;;;;;;;5102559;27;61929;-74
2022/09/19 05:21:02;;;;;;;;;8.50;4.50;;;;;;;;5101691;27;61942;-74
2022/09/19 05:23:27;;;;;;;;;8.50;2.75;;;;;;;;5099405;27;61930;-75
2022/09/19 05:25:55;;;;;;;;;4.00;3.75;;;;;;;;5097830;27;64721;-75
2022/09/19 05:28:26;;;;;;;;;3.25;2.50;;;;;;;;5102349;27;61837;-76
2022/09/19 05:30:54;;;;;;;;;5.00;4.00;;;;;;;;5102583;27;61865;-76
2022/09/19 05:33:23;;;;;;;;;3.00;2.00;;;;;;;;5101857;27;61885;-75
2022/09/19 05:35:55;;;;;;;;;3.50;3.50;;;;;;;;5099203;27;63785;-75
2022/09/19 05:38:23;;;;;;;;;3.00;3.00;;;;;;;;5091319;27;62042;-75
2022/09/19 05:40:53;;;;;;;;;3.50;3.50;;;;;;;;5094576;27;61953;-75
2022/09/19 05:43:18;;;;;;;;;4.25;4.00;;;;;;;;5081877;28;61790;-75
2022/09/19 05:45:44;;;;;;;;;2.00;2.00;;;;;;;;5097503;27;64807;-75
2022/09/19 05:48:09;;;;;;;;;3.50;3.50;;;;;;;;5099736;27;61705;-75
2022/09/19 05:50:34;;;;;;;;;4.75;4.75;;;;;;;;5103596;27;61821;-74
2022/09/19 05:55:43;;;;;;;;;7.75;5.00;;;;;;;;5104636;27;61867;-74
2022/09/19 05:58:09;;;;;;;;;4.00;4.00;;;;;;;;5103635;27;61874;-75
2022/09/19 06:00:37;;;;;;;;;1.75;1.75;;;;;;;;5104156;27;61903;-73
2022/09/19 06:03:03;;;;;;;;;3.25;3.25;;;;;;;;5102948;27;62233;-73
2022/09/19 06:05:32;;;;;;;;;2.25;2.25;;;;;;;;5103587;27;63223;-73
2022/09/19 06:07:58;;;;;;;;;8.25;4.00;;;;;;;;5103885;27;61931;-73
2022/09/19 06:10:24;;;;;;;;;7.00;3.00;;;;;;;;5102160;27;61981;-73
2022/09/19 06:12:50;;;;;;;;;4.75;4.75;;;;;;;;5103793;27;61970;-74
2022/09/19 06:15:16;;;;;;;;;4.00;3.00;;;;;;;;5103421;27;62185;-72
2022/09/19 06:17:41;;;;;;;;;7.00;5.00;;;;;;;;5102134;27;61938;-72
2022/09/19 06:20:08;;;;;;;;;5.00;5.00;;;;;;;;5104958;27;61915;-72
2022/09/19 06:22:34;;;;;;;;;3.75;3.75;;;;;;;;5102026;27;62070;-72
2022/09/19 06:25:00;;;;;;;;;4.25;4.25;;;;;;;;5104133;27;62868;-71
2022/09/19 06:27:26;;;;;;;;;5.50;4.75;;;;;;;;5101964;27;62211;-72
2022/09/19 06:29:51;;;;;;;;;4.00;4.00;;;;;;;;5104526;27;62608;-72
2022/09/19 06:32:18;;;;;;;;;4.00;4.00;;;;;;;;5104152;27;61982;-72
2022/09/19 06:34:43;;;;;;;;;5.25;3.00;;;;;;;;5102128;27;64080;-72
2022/09/19 06:37:11;;;;;;;;;6.00;5.00;;;;;;;;5104187;27;61909;-72
2022/09/19 06:39:37;;;;;;;;;7.00;4.75;;;;;;;;5104330;27;61790;-72
2022/09/19 06:42:03;;;;;;;;;4.00;4.00;;;;;;;;5103992;27;61810;-73
2022/09/19 06:44:29;;;;;;;;;4.25;3.00;;;;;;;;5102118;27;63991;-75
2022/09/19 06:46:54;;;;;;;;;7.00;4.00;;;;;;;;5103585;27;62067;-74
2022/09/19 06:49:20;;;;;;;;;5.50;3.00;;;;;;;;5101608;27;61923;-75
2022/09/19 06:51:45;;;;;;;;;6.75;6.75;;;;;;;;5103196;27;61820;-75
2022/09/19 06:54:10;;;;;;;;;6.00;4.75;;;;;;;;5103216;27;61948;-73
2022/09/19 06:56:35;;;;;;;;;5.00;5.00;;;;;;;;5104112;27;61737;-74
2022/09/19 06:59:01;;;;;;;;;7.75;4.00;;;;;;;;5102787;27;62086;-74
2022/09/19 07:01:26;;;;;;;;;6.75;5.00;;;;;;;;5102513;27;61942;-74
2022/09/19 07:03:51;;;;;;;;;8.25;7.00;;;;;;;;5102171;27;64531;-76
2022/09/19 07:06:17;;;;;;;;;2.50;2.50;;;;;;;;5104674;27;61913;-75
2022/09/19 07:08:42;;;;;;;;;3.00;3.00;;;;;;;;5104506;27;61699;-74
2022/09/19 07:11:07;;;;;;;;;5.75;4.75;;;;;;;;5103136;27;61812;-75
2022/09/19 07:13:32;;;;;;;;;3.25;3.25;;;;;;;;5101637;27;64085;-75
2022/09/19 07:16:03;;;;;;;;;7.00;6.00;;;;;;;;5102641;27;61843;-74
2022/09/19 07:18:29;;;;;;;;;4.50;4.50;;;;;;;;5102528;27;61804;-75
2022/09/19 07:20:54;;;;;;;;;5.50;4.50;;;;;;;;5103040;27;62325;-74
2022/09/19 07:23:19;;;;;;;;;4.00;4.00;;;;;;;;5103446;27;62936;-74
2022/09/19 07:25:45;;;;;;;;;7.25;4.00;;;;;;;;5104092;27;61836;-75
2022/09/19 07:28:11;;;;;;;;;4.00;2.25;;;;;;;;5102682;27;61856;-75
2022/09/19 07:30:37;;;;;;;;;5.75;5.00;;;;;;;;5102964;27;61846;-75
2022/09/19 07:33:04;;;;;;;;;5.50;3.75;;;;;;;;5102993;27;62621;-75
2022/09/19 07:35:32;;;;;;;;;4.00;4.00;;;;;;;;5104210;27;61858;-75
2022/09/19 07:37:58;;;;;;;;;5.00;3.00;;;;;;;;5103937;27;61857;-75
2022/09/19 07:40:23;;;;;;;;;6.00;3.75;;;;;;;;5104307;27;61846;-75
2022/09/19 07:42:50;;;;;;;;;5.00;4.50;;;;;;;;5103413;27;62235;-75
2022/09/19 07:45:16;;;;;;;;;8.25;5.00;;;;;;;;5103944;27;61758;-75
2022/09/19 07:47:45;;;;;;;;;3.00;3.00;;;;;;;;5102173;27;61851;-75
2022/09/19 07:50:16;;;;;;;;;3.75;3.25;;;;;;;;5103642;27;62065;-75
2022/09/19 07:52:43;;;;;;;;;5.00;4.00;;;;;;;;5103088;27;62577;-75
2022/09/19 07:55:10;;;;;;;;;8.00;7.00;;;;;;;;5102906;27;62006;-75
2022/09/19 07:57:36;;;;;;;;;3.50;3.00;;;;;;;;5102107;27;61978;-75
2022/09/19 08:00:01;;;;;;;;;4.50;4.00;;;;;;;;5103603;27;61854;-75
2022/09/19 08:02:26;;;;;;;;;5.50;4.75;;;;;;;;5102567;27;61963;-75
2022/09/19 08:04:51;;;;;;;;;3.75;3.75;;;;;;;;5103543;27;61761;-75
2022/09/19 08:07:17;;;;;;;;;2.75;2.75;;;;;;;;5103307;27;61802;-75
2022/09/19 08:09:43;;;;;;;;;3.00;3.00;;;;;;;;5103631;27;61952;-75
2022/09/19 08:12:12;;;;;;;;;5.75;3.25;;;;;;;;5102323;27;62876;-75
2022/09/19 08:14:37;;;;;;;;;3.75;3.75;;;;;;;;5102909;27;62047;-75
2022/09/19 08:17:03;;;;;;;;;3.50;3.50;;;;;;;;5103299;27;61621;-75
2022/09/19 08:19:28;;;;;;;;;1.00;1.00;;;;;;;;5103183;27;62570;-75
2022/09/19 08:21:53;;;;;;;;;3.50;2.00;;;;;;;;5101278;27;63581;-75
2022/09/19 08:24:19;;;;;;;;;3.00;2.50;;;;;;;;5101002;27;62100;-75
2022/09/19 08:26:44;;;;;;;;;2.75;2.75;;;;;;;;5101861;27;61928;-75
2022/09/19 08:29:09;;;;;;;;;1.00;1.00;;;;;;;;5101978;27;61926;-74
2022/09/19 08:31:35;;;;;;;;;2.00;0.25;;;;;;;;5102467;27;61859;-75
2022/09/19 08:34:01;;;;;;;;;2.25;0.25;;;;;;;;5100520;27;62037;-75
2022/09/19 08:36:26;;;;;;;;;2.00;0.50;;;;;;;;5101595;27;62037;-74
2022/09/19 08:38:51;;;;;;;;;1.00;1.00;;;;;;;;5102899;27;62059;-74
2022/09/19 08:41:35;;;;;;;;;14.25;10.50;;;;;;;;5102359;27;62854;-74
2022/09/19 08:44:07;;;;;;;;;0.00;0.00;;;;;;;;5101645;27;61638;-74
2022/09/19 08:46:51;;;;;;;;;1.00;0.00;;;;;;;;5101717;27;62159;-74
2022/09/19 08:49:19;;;;;;;;;0.00;0.00;;;;;;;;5101131;27;61817;-74
2022/09/19 08:52:08;;;;;;;;;3.00;0.00;;;;;;;;5100897;27;63786;-75
2022/09/19 08:54:44;;;;;;;;;1.00;0.00;;;;;;;;5102340;27;61848;-74
2022/09/19 08:57:30;;;;;;;;;0.00;0.00;;;;;;;;5102857;27;61953;-75
2022/09/19 08:59:58;;;;;;;;;0.00;0.00;;;;;;;;5102944;27;61811;-75
2022/09/19 09:02:23;;;;;;;;;0.00;0.00;;;;;;;;5101887;27;62239;-74
2022/09/19 09:04:48;;;;;;;;;3.00;0.00;;;;;;;;5100653;27;62001;-74
2022/09/19 09:07:19;;;;;;;;;2.00;0.00;;;;;;;;5102188;27;61975;-74
2022/09/19 09:10:03;;;;;;;;;0.50;0.00;;;;;;;;5103016;27;61819;-74
2022/09/19 09:12:47;;;;;;;;;0.00;0.00;;;;;;;;5101822;27;62035;-75
2022/09/19 09:15:24;;;;;;;;;1.00;0.00;;;;;;;;5102535;27;61831;-75
2022/09/19 09:18:08;;;;;;;;;0.25;0.00;;;;;;;;5100968;27;61763;-74
2022/09/19 09:20:49;;;;;;;;;0.00;0.00;;;;;;;;5101375;27;61780;-75
2022/09/19 09:23:26;;;;;;;;;0.00;0.00;;;;;;;;5101108;27;62010;-75
2022/09/19 09:25:56;;;;;;;;;1.00;0.00;;;;;;;;5104480;27;61916;-74
2022/09/19 09:28:26;;;;;;;;;2.00;0.00;;;;;;;;5105894;27;61946;-75
2022/09/19 09:30:53;;;;;;;;;1.00;0.00;;;;;;;;5106312;27;61952;-74
2022/09/19 09:33:23;;;;;;;;;0.00;0.00;;;;;;;;5105123;27;62095;-74
2022/09/19 09:35:54;;;;;;;;;0.75;0.00;;;;;;;;5105614;27;61849;-74
2022/09/19 09:38:30;;;;;;;;;0.00;0.00;;;;;;;;5105913;27;62043;-74
2022/09/19 09:44:14;;;;;;;;;0.50;0.00;;;;;;;;5105371;27;62433;-75
2022/09/19 09:47:02;;;;;;;;;0.00;0.00;;;;;;;;5105617;27;61709;-75
2022/09/19 09:49:29;;;;;;;;;0.00;0.00;;;;;;;;5105227;27;62082;-75
2022/09/19 09:51:57;;;;;;;;;1.75;0.00;;;;;;;;5105673;27;62163;-75
2022/09/19 09:57:32;;;;;;;;;0.00;0.00;;;;;;;;5105438;27;61914;-75
2022/09/19 10:05:53;;;;;;;;;0.00;0.00;;;;;;;;5104378;27;62937;-75
2022/09/19 10:08:27;;;;;;;;;0.25;0.00;;;;;;;;5103957;27;61648;-75
2022/09/19 10:10:59;;;;;;;;;1.00;0.00;;;;;;;;5105392;27;61899;-75
2022/09/19 10:13:27;;;;;;;;;0.00;0.00;;;;;;;;5105263;27;61965;-75
2022/09/19 10:16:02;;;;;;;;;0.00;0.00;;;;;;;;5104809;27;62688;-75
2022/09/19 10:18:33;;;;;;;;;0.50;0.50;;;;;;;;5104854;27;61775;-75
2022/09/19 10:20:58;;;;;;;;;0.00;0.00;;;;;;;;5105131;27;61943;-75
2022/09/19 10:23:25;;;;;;;;;0.00;0.00;;;;;;;;5104956;27;62065;-75
2022/09/19 10:26:15;;;;;;;;;1.00;0.00;;;;;;;;5104678;27;61826;-75
2022/09/19 10:28:46;;;;;;;;;0.00;0.00;;;;;;;;5103364;27;61966;-75
2022/09/19 10:31:30;;;;;;;;;0.00;0.00;;;;;;;;5103980;27;61745;-75
2022/09/19 10:33:55;;;;;;;;;1.00;0.00;;;;;;;;5103256;27;61833;-75
2022/09/19 10:36:22;;;;;;;;;0.00;0.00;;;;;;;;5102194;27;64658;-74
2022/09/19 10:38:54;;;;;;;;;1.00;0.00;;;;;;;;5104625;27;62140;-74
2022/09/19 10:41:21;;;;;;;;;0.00;0.00;;;;;;;;5104960;27;61915;-75
2022/09/19 10:43:48;;;;;;;;;0.00;0.00;;;;;;;;5103580;27;61759;-75
2022/09/19 10:46:19;;;;;;;;;0.00;0.00;;;;;;;;5103029;27;64757;-74
2022/09/19 10:48:56;;;;;;;;;0.00;0.00;;;;;;;;5102003;27;62048;-75
2022/09/19 10:51:22;;;;;;;;;0.00;0.00;;;;;;;;5102896;27;61827;-74
2022/09/19 10:53:52;;;;;;;;;0.00;0.00;;;;;;;;5102208;27;61791;-75
2022/09/19 10:56:23;;;;;;;;;0.50;0.00;;;;;;;;5103325;27;61954;-75
2022/09/19 10:58:59;;;;;;;;;0.00;0.00;;;;;;;;5101265;27;62001;-74
2022/09/19 11:01:25;;;;;;;;;0.00;0.00;;;;;;;;5100092;27;61769;-74
2022/09/19 11:03:58;;;;;;;;;0.75;0.00;;;;;;;;5101910;27;61803;-74
2022/09/19 11:06:23;;;;;;;;;0.00;0.00;;;;;;;;5099775;27;64956;-74
2022/09/19 11:08:51;;;;;;;;;0.50;0.00;;;;;;;;5103642;27;62061;-75
2022/09/19 11:11:36;;;;;;;;;0.00;0.00;;;;;;;;5103721;27;61794;-75
2022/09/19 11:14:12;;;;;;;;;0.00;0.00;;;;;;;;5104157;27;61863;-75
2022/09/19 11:16:45;;;;;;;;;0.75;0.75;;;;;;;;5101886;27;63032;-74
2022/09/19 11:19:13;;;;;;;;;1.00;0.00;;;;;;;;5103504;27;62063;-74
2022/09/19 11:21:56;;;;;;;;;1.75;0.00;;;;;;;;5104121;27;61773;-74
2022/09/19 11:24:40;;;;;;;;;0.75;0.00;;;;;;;;5102793;27;61711;-75
2022/09/19 11:27:34;;;;;;;;;0.00;0.00;;;;;;;;5103297;27;62723;-75
2022/09/19 11:30:11;;;;;;;;;0.50;0.00;;;;;;;;5080595;28;62250;-74
2022/09/19 11:32:39;;;;;;;;;0.00;0.00;;;;;;;;5063514;28;61963;-75
2022/09/19 11:35:07;;;;;;;;;0.00;0.00;;;;;;;;5064238;28;61775;-75
2022/09/19 11:37:32;;;;;;;;;0.00;0.00;;;;;;;;5080524;28;62181;-75
2022/09/19 11:40:03;;;;;;;;;0.00;0.00;;;;;;;;5080782;28;61716;-75
2022/09/19 11:42:38;;;;;;;;;0.00;0.00;;;;;;;;5080926;28;61856;-75
2022/09/19 11:45:03;;;;;;;;;0.00;0.00;;;;;;;;5081023;27;61738;-75
2022/09/19 11:47:28;;;;;;;;;0.00;0.00;;;;;;;;5078902;28;62114;-75
2022/09/19 11:49:53;;;;;;;;;0.00;0.00;;;;;;;;5080223;28;62129;-75
2022/09/19 11:52:25;;;;;;;;;0.00;0.00;;;;;;;;5080856;28;61959;-75
2022/09/19 11:55:19;;;;;;;;;0.00;0.00;;;;;;;;5080792;28;61682;-75
2022/09/19 11:57:59;;;;;;;;;0.00;0.00;;;;;;;;5063033;28;64024;-75
2022/09/19 12:00:26;;;;;;;;;0.00;0.00;;;;;;;;5080651;28;62300;-75
2022/09/19 12:03:14;;;;;;;;;0.00;0.00;;;;;;;;5080539;28;62020;-74
2022/09/19 12:05:46;;;;;;;;;0.67;0.00;;;;;;;;5085192;27;62049;-74
2022/09/19 12:08:17;;;;;;;;;0.00;0.00;;;;;;;;5102702;27;61923;-75
2022/09/19 12:10:45;;;;;;;;;0.33;0.00;;;;;;;;5103633;27;61744;-75
2022/09/19 12:13:20;;;;;;;;;0.00;0.00;;;;;;;;5103565;27;61865;-75
2022/09/19 12:15:55;;;;;;;;;0.33;0.00;;;;;;;;5102201;27;61849;-75
2022/09/19 12:18:26;;;;;;;;;0.00;0.00;;;;;;;;5102367;27;61850;-75
2022/09/19 12:20:54;;;;;;;;;0.00;0.00;;;;;;;;5103527;27;61688;-75
2022/09/19 12:26:09;;;;;;;;;0.00;0.00;;;;;;;;5103336;27;61886;-76
2022/09/19 12:28:40;;;;;;;;;0.00;0.00;;;;;;;;5101250;27;64869;-75
2022/09/19 12:31:08;;;;;;;;;2.00;0.00;;;;;;;;5101587;27;62037;-76
2022/09/19 12:33:37;;;;;;;;;1.00;0.00;;;;;;;;5101679;27;61782;-75
2022/09/19 12:36:04;;;;;;;;;0.00;0.00;;;;;;;;5102066;27;61902;-75
2022/09/19 12:38:35;;;;;;;;;1.00;0.00;;;;;;;;5102372;27;62657;-75
2022/09/19 12:41:07;;;;;;;;;1.00;0.00;;;;;;;;5101905;27;61709;-76
2022/09/19 12:43:40;;;;;;;;;0.00;0.00;;;;;;;;5103193;27;61999;-75
2022/09/19 12:46:09;;;;;;;;;1.00;0.00;;;;;;;;5101681;27;61831;-75
2022/09/19 12:48:47;;;;;;;;;0.00;0.00;;;;;;;;5101915;27;62606;-75
2022/09/19 12:51:14;;;;;;;;;0.67;0.00;;;;;;;;5101609;27;61904;-75
2022/09/19 12:53:44;;;;;;;;;0.00;0.00;;;;;;;;5102615;27;61708;-75
2022/09/19 12:56:16;;;;;;;;;0.00;0.00;;;;;;;;5103353;27;62143;-75
2022/09/19 12:58:48;;;;;;;;;0.00;0.00;;;;;;;;5100024;27;64037;-75
2022/09/19 13:01:17;;;;;;;;;0.00;0.00;;;;;;;;5101439;27;61792;-75
2022/09/19 13:03:47;;;;;;;;;0.00;0.00;;;;;;;;5101043;27;61912;-75
2022/09/19 13:06:20;;;;;;;;;0.00;0.00;;;;;;;;5102748;27;62080;-75
2022/09/19 13:08:48;;;;;;;;;1.00;0.00;;;;;;;;5101985;27;61869;-75
2022/09/19 13:11:13;;;;;;;;;0.00;0.00;;;;;;;;5102908;27;61815;-76
2022/09/19 13:13:53;;;;;;;;;0.00;0.00;;;;;;;;5101076;27;61925;-75
2022/09/19 13:16:28;;;;;;;;;0.00;0.00;;;;;;;;5102971;27;61790;-75
2022/09/19 13:24:41;;;;;;;;;0.00;0.00;;;;;;;;5102436;27;61730;-75
2022/09/19 13:27:07;;;;;;;;;1.33;0.00;;;;;;;;5101478;27;61981;-75
2022/09/19 13:29:32;;;;;;;;;0.00;0.00;;;;;;;;5099938;27;64669;-75
2022/09/19 13:31:59;;;;;;;;;0.00;0.00;;;;;;;;5102326;27;61785;-75
2022/09/19 13:34:39;;;;;;;;;0.00;0.00;;;;;;;;5101367;27;61924;-76
2022/09/19 13:37:24;;;;;;;;;0.00;0.00;;;;;;;;5098441;27;61917;-76
2022/09/19 13:39:52;;;;;;;;;0.67;0.00;;;;;;;;5099767;27;63039;-75
2022/09/19 13:42:24;;;;;;;;;0.33;0.00;;;;;;;;5100460;27;61789;-75
2022/09/19 13:45:01;;;;;;;;;0.00;0.00;;;;;;;;5100953;27;62082;-75
2022/09/19 13:47:28;;;;;;;;;0.00;0.00;;;;;;;;5097286;27;61827;-75
2022/09/19 13:50:06;;;;;;;;;1.00;0.00;;;;;;;;5098530;27;63709;-75
2022/09/19 13:52:37;;;;;;;;;0.00;0.00;;;;;;;;5099513;27;61870;-75
2022/09/19 13:55:18;;;;;;;;;1.33;0.00;;;;;;;;5098021;27;61729;-75
2022/09/19 13:57:43;;;;;;;;;0.00;0.00;;;;;;;;5097998;27;61717;-75
2022/09/19 14:00:27;;;;;;;;;0.00;0.00;;;;;;;;5100117;27;62603;-75
2022/09/19 14:03:00;;;;;;;;;0.00;0.00;;;;;;;;5097782;27;62011;-76
2022/09/19 14:05:26;;;;;;;;;0.67;0.00;;;;;;;;5098543;27;61951;-76
2022/09/19 14:07:58;;;;;;;;;0.00;0.00;;;;;;;;5100937;27;61684;-75
2022/09/19 14:10:38;;;;;;;;;0.00;0.00;;;;;;;;5096363;27;63810;-76
2022/09/19 14:13:24;;;;;;;;;2.33;0.00;;;;;;;;5099963;27;61757;-75
2022/09/19 14:15:59;;;;;;;;;0.00;0.00;;;;;;;;5102552;27;61818;-75
2022/09/19 14:18:36;;;;;;;;;0.00;0.00;;;;;;;;5101439;27;62247;-75
2022/09/19 14:21:03;;;;;;;;;0.00;0.00;;;;;;;;5100889;27;61891;-74
2022/09/19 14:23:33;;;;;;;;;0.00;0.00;;;;;;;;5103349;27;62208;-75
2022/09/19 14:26:03;;;;;;;;;0.00;0.00;;;;;;;;5103549;27;61916;-75
2022/09/19 14:28:34;;;;;;;;;0.00;0.00;;;;;;;;5104018;27;61907;-74
2022/09/19 14:31:15;;;;;;;;;0.00;0.00;;;;;;;;5101592;27;64816;-74
2022/09/19 14:33:43;;;;;;;;;0.00;0.00;;;;;;;;5099641;27;61939;-75
2022/09/19 14:36:28;;;;;;;;;0.00;0.00;;;;;;;;5102301;27;61947;-75
2022/09/19 14:39:12;;;;;;;;;0.00;0.00;;;;;;;;5100358;27;62506;-74
2022/09/19 14:41:58;;;;;;;;;0.00;0.00;;;;;;;;5100069;27;63780;-74
2022/09/19 14:44:31;;;;;;;;;0.00;0.00;;;;;;;;5101422;27;61729;-75
2022/09/19 14:47:02;;;;;;;;;0.00;0.00;;;;;;;;5103254;27;61953;-75
2022/09/19 14:49:38;;;;;;;;;0.00;0.00;;;;;;;;5100269;27;61773;-74
2022/09/19 14:52:15;;;;;;;;;0.00;0.00;;;;;;;;5101217;27;64002;-74
2022/09/19 14:54:44;;;;;;;;;0.33;0.00;;;;;;;;5100763;27;61795;-75
2022/09/19 14:57:16;;;;;;;;;0.00;0.00;;;;;;;;5102167;27;61897;-75
2022/09/19 14:59:42;;;;;;;;;0.00;0.00;;;;;;;;5101592;27;62006;-75
2022/09/19 15:02:08;;;;;;;;;0.33;0.00;;;;;;;;5101150;27;63958;-75
2022/09/19 15:04:33;;;;;;;;;0.00;0.00;;;;;;;;5102677;27;61966;-75
2022/09/19 15:06:59;;;;;;;;;0.00;0.00;;;;;;;;5103235;27;61916;-75
2022/09/19 15:09:28;;;;;;;;;0.00;0.00;;;;;;;;5102935;27;61973;-75
2022/09/19 15:11:55;;;;;;;;;0.00;0.00;;;;;;;;5102503;27;61785;-75
2022/09/19 15:14:22;;;;;;;;;0.00;0.00;;;;;;;;5101411;27;61808;-74
2022/09/19 15:17:09;;;;;;;;;0.00;0.00;;;;;;;;5101454;27;61803;-75
2022/09/19 15:19:36;;;;;;;;;0.00;0.00;;;;;;;;5099665;27;61940;-74
2022/09/19 15:22:01;;;;;;;;;0.00;0.00;;;;;;;;5100376;27;61953;-75
2022/09/19 15:24:27;;;;;;;;;0.33;0.33;;;;;;;;5102067;27;61801;-75
2022/09/19 15:26:57;;;;;;;;;0.00;0.00;;;;;;;;5104276;27;61867;-75